Time,TemperatureF,DewpointF,PressureIn,WindDirection,WindDirectionDegrees,WindSpeedMPH,WindSpeedGustMPH,Humidity,HourlyPrecipIn,Conditions,Clouds,dailyrainin,SolarRadiationWatts/m^2,SoftwareType,DateUTC
2013-02-16 00:00:00,53.8,46.0,30.15,SSW,202,3.4,3.8,75,0.00,,,0.00,0.00,VWS V14.01,2013-02-16 08:00:00,
2013-02-16 00:04:00,53.8,44.2,30.15,SW,225,0.0,0.0,70,0.00,,,0.00,0.00,VWS V14.01,2013-02-16 08:04:00,
2013-02-16 00:09:00,54.1,44.6,30.15,SSW,202,1.3,3.4,70,0.00,,,0.00,0.00,VWS V14.01,2013-02-16 08:09:00,
2013-02-16 00:14:00,53.8,44.2,30.15,SW,225,2.9,3.4,70,0.00,,,0.00,0.00,VWS V14.01,2013-02-16 08:14:00,
2013-02-16 00:15:00,54.1,46.4,30.15,SW,225,2.5,3.8,75,0.00,,,0.00,0.00,VWS V14.01,2013-02-16 08:15:00,
2013-02-16 00:19:00,53.6,44.4,30.15,SSW,202,2.5,2.5,71,0.00,,,0.00,0.00,VWS V14.01,2013-02-16 08:19:00,
2013-02-16 00:24:00,53.8,44.2,30.15,SSW,202,2.0,3.6,70,0.00,,,0.00,0.00,VWS V14.01,2013-02-16 08:24:00,
2013-02-16 00:29:00,53.4,44.6,30.15,SW,225,0.0,3.6,72,0.00,,,0.00,0.00,VWS V14.01,2013-02-16 08:29:00,
2013-02-16 00:30:00,53.6,46.2,30.15,SSW,202,3.4,4.3,76,0.00,,,0.00,0.00,VWS V14.01,2013-02-16 08:30:00,
2013-02-16 00:34:00,53.8,45.0,30.15,SSW,202,0.0,3.4,72,0.00,,,0.00,0.00,VWS V14.01,2013-02-16 08:34:00,
2013-02-16 00:39:00,53.2,45.2,30.15,SW,225,3.6,3.6,74,0.00,,,0.00,0.00,VWS V14.01,2013-02-16 08:39:00,
2013-02-16 00:44:00,53.4,45.7,30.15,SW,225,2.2,3.6,75,0.00,,,0.00,0.00,VWS V14.01,2013-02-16 08:44:00,
2013-02-16 00:45:00,53.4,46.4,30.15,SW,225,3.1,3.6,77,0.00,,,0.00,0.00,VWS V14.01,2013-02-16 08:45:00,
2013-02-16 00:49:00,53.8,46.0,30.15,SSW,202,2.9,3.6,75,0.00,,,0.00,0.00,VWS V14.01,2013-02-16 08:49:00,
2013-02-16 00:54:00,53.6,45.9,30.15,WSW,248,1.1,3.8,75,0.00,,,0.00,0.00,VWS V14.01,2013-02-16 08:54:00,
2013-02-16 00:59:00,53.8,46.0,30.15,South,180,2.5,3.8,75,0.00,,,0.00,0.00,VWS V14.01,2013-02-16 08:59:00,
2013-02-16 01:00:00,53.1,46.0,30.15,SSW,202,0.0,3.6,77,0.00,,,0.00,0.00,VWS V14.01,2013-02-16 09:00:00,
2013-02-16 01:04:00,53.6,45.9,30.15,SSW,202,2.5,3.6,75,0.00,,,0.00,0.00,VWS V14.01,2013-02-16 09:04:00,
2013-02-16 01:09:00,54.0,46.2,30.15,SW,225,2.0,3.8,75,0.00,,,0.00,0.00,VWS V14.01,2013-02-16 09:09:00,
2013-02-16 01:14:00,54.0,46.2,30.15,SSW,202,2.5,3.8,75,0.00,,,0.00,0.00,VWS V14.01,2013-02-16 09:14:00,
2013-02-16 01:15:00,52.5,45.9,30.15,SSW,202,2.0,3.4,78,0.00,,,0.00,0.00,VWS V14.01,2013-02-16 09:15:00,
2013-02-16 01:19:00,54.3,46.6,30.15,SSW,202,4.0,4.0,75,0.00,,,0.00,0.00,VWS V14.01,2013-02-16 09:19:00,
2013-02-16 01:24:00,54.0,46.2,30.15,SSW,202,3.4,4.3,75,0.00,,,0.00,0.00,VWS V14.01,2013-02-16 09:24:00,
2013-02-16 01:29:00,53.6,45.9,30.15,SSW,202,3.4,4.3,75,0.00,,,0.00,0.00,VWS V14.01,2013-02-16 09:29:00,
2013-02-16 01:30:00,52.3,46.0,30.15,SSW,202,0.0,3.1,79,0.00,,,0.00,0.00,VWS V14.01,2013-02-16 09:30:00,
2013-02-16 01:34:00,53.8,46.4,30.15,SSW,202,2.7,3.4,76,0.00,,,0.00,0.00,VWS V14.01,2013-02-16 09:34:00,
2013-02-16 01:39:00,53.4,46.1,30.15,SSW,202,2.0,3.4,76,0.00,,,0.00,0.00,VWS V14.01,2013-02-16 09:39:00,
2013-02-16 01:44:00,53.4,46.4,30.15,SW,225,2.7,3.6,77,0.00,,,0.00,0.00,VWS V14.01,2013-02-16 09:44:00,
2013-02-16 01:45:00,53.2,46.2,30.12,SSW,202,3.1,4.0,77,0.00,,,0.00,0.00,VWS V14.01,2013-02-16 09:45:00,
2013-02-16 01:49:00,53.4,46.4,30.15,SW,225,0.0,3.6,77,0.00,,,0.00,0.00,VWS V14.01,2013-02-16 09:49:00,
2013-02-16 01:54:00,53.2,46.2,30.15,SW,225,0.0,3.6,77,0.00,,,0.00,0.00,VWS V14.01,2013-02-16 09:54:00,
2013-02-16 01:59:00,53.1,46.0,30.15,SSW,202,0.0,3.6,77,0.00,,,0.00,0.00,VWS V14.01,2013-02-16 09:59:00,
2013-02-16 02:00:00,52.9,45.9,30.12,SSW,202,2.5,3.8,77,0.00,,,0.00,0.00,VWS V14.01,2013-02-16 10:00:00,
2013-02-16 02:04:00,52.9,46.2,30.15,SSW,202,1.6,2.9,78,0.00,,,0.00,0.00,VWS V14.01,2013-02-16 10:04:00,
2013-02-16 02:09:00,52.7,46.0,30.15,SSW,202,0.0,2.9,78,0.00,,,0.00,0.00,VWS V14.01,2013-02-16 10:09:00,
2013-02-16 02:14:00,52.7,46.0,30.15,SSW,202,1.3,3.4,78,0.00,,,0.00,0.00,VWS V14.01,2013-02-16 10:14:00,
2013-02-16 02:15:00,52.9,45.9,30.12,South,180,2.7,3.8,77,0.00,,,0.00,0.00,VWS V14.01,2013-02-16 10:15:00,
2013-02-16 02:19:00,52.3,46.0,30.15,SW,225,2.9,3.1,79,0.00,,,0.00,0.00,VWS V14.01,2013-02-16 10:19:00,
2013-02-16 02:24:00,52.7,46.0,30.15,WSW,248,2.0,3.1,78,0.00,,,0.00,0.00,VWS V14.01,2013-02-16 10:24:00,
2013-02-16 02:29:00,52.5,45.9,30.15,SSW,202,0.0,3.1,78,0.00,,,0.00,0.00,VWS V14.01,2013-02-16 10:29:00,
2013-02-16 02:30:00,52.7,45.4,30.12,SSW,202,2.9,3.4,76,0.00,,,0.00,0.00,VWS V14.01,2013-02-16 10:30:00,
2013-02-16 02:35:00,52.9,46.5,30.15,SSW,202,2.7,3.8,79,0.00,,,0.00,0.00,VWS V14.01,2013-02-16 10:35:00,
2013-02-16 02:40:00,52.9,46.2,30.15,SSW,202,3.8,3.8,78,0.00,,,0.00,0.00,VWS V14.01,2013-02-16 10:40:00,
2013-02-16 02:45:00,53.2,46.2,30.12,SSW,202,3.1,4.0,77,0.00,,,0.00,0.00,VWS V14.01,2013-02-16 10:45:00,
2013-02-16 02:50:00,53.1,46.0,30.12,SSW,202,2.7,3.8,77,0.00,,,0.00,0.00,VWS V14.01,2013-02-16 10:50:00,
2013-02-16 02:55:00,52.9,45.9,30.12,SSW,202,0.0,3.8,77,0.00,,,0.00,0.00,VWS V14.01,2013-02-16 10:55:00,
2013-02-16 03:00:00,52.9,45.9,30.12,SSW,202,2.9,3.8,77,0.00,,,0.00,0.00,VWS V14.01,2013-02-16 11:00:00,
2013-02-16 03:05:00,53.1,46.0,30.12,WSW,248,0.0,3.8,77,0.00,,,0.00,0.00,VWS V14.01,2013-02-16 11:05:00,
2013-02-16 03:10:00,53.1,46.0,30.12,SSW,202,2.7,3.8,77,0.00,,,0.00,0.00,VWS V14.01,2013-02-16 11:10:00,
2013-02-16 03:15:00,52.9,45.9,30.12,South,180,2.7,2.7,77,0.00,,,0.00,0.00,VWS V14.01,2013-02-16 11:15:00,
2013-02-16 03:20:00,52.7,45.7,30.12,SSW,202,2.7,2.9,77,0.00,,,0.00,0.00,VWS V14.01,2013-02-16 11:20:00,
2013-02-16 03:25:00,53.1,45.7,30.12,SSW,202,2.5,3.1,76,0.00,,,0.00,0.00,VWS V14.01,2013-02-16 11:25:00,
2013-02-16 03:30:00,52.7,45.4,30.12,SSW,202,3.4,3.4,76,0.00,,,0.00,0.00,VWS V14.01,2013-02-16 11:30:00,
2013-02-16 03:35:00,52.9,45.5,30.12,SSW,202,2.9,3.4,76,0.00,,,0.00,0.00,VWS V14.01,2013-02-16 11:35:00,
2013-02-16 03:40:00,52.9,45.5,30.12,SSW,202,3.6,3.6,76,0.00,,,0.00,0.00,VWS V14.01,2013-02-16 11:40:00,
2013-02-16 03:45:00,53.2,45.9,30.12,WSW,248,2.5,2.5,76,0.00,,,0.00,0.00,VWS V14.01,2013-02-16 11:45:00,
2013-02-16 03:50:00,52.7,45.7,30.12,SW,225,1.6,2.5,77,0.00,,,0.00,0.00,VWS V14.01,2013-02-16 11:50:00,
2013-02-16 03:55:00,53.1,45.7,30.12,SSW,202,2.7,3.4,76,0.00,,,0.00,0.00,VWS V14.01,2013-02-16 11:55:00,
2013-02-16 04:00:00,53.4,45.7,30.09,SSW,202,0.0,1.6,75,0.00,,,0.00,0.00,VWS V14.01,2013-02-16 12:00:00,
2013-02-16 04:05:00,53.1,45.7,30.09,South,180,0.0,2.7,76,0.00,,,0.00,0.00,VWS V14.01,2013-02-16 12:05:00,
2013-02-16 04:10:00,53.1,45.7,30.09,SW,225,2.7,2.7,76,0.00,,,0.00,0.00,VWS V14.01,2013-02-16 12:10:00,
2013-02-16 04:15:00,53.1,45.4,30.09,South,180,0.0,0.0,75,0.00,,,0.00,0.00,VWS V14.01,2013-02-16 12:15:00,
2013-02-16 04:20:00,53.6,45.5,30.09,WSW,248,2.7,3.6,74,0.00,,,0.00,0.00,VWS V14.01,2013-02-16 12:20:00,
2013-02-16 04:25:00,54.5,46.0,30.09,SSW,202,0.9,3.6,73,0.00,,,0.00,0.00,VWS V14.01,2013-02-16 12:25:00,
2013-02-16 04:30:00,54.9,45.7,30.09,South,180,0.0,0.0,71,0.00,,,0.00,0.00,VWS V14.01,2013-02-16 12:30:00,
2013-02-16 04:35:00,54.1,45.3,30.09,South,180,0.0,0.0,72,0.00,,,0.00,0.00,VWS V14.01,2013-02-16 12:35:00,
2013-02-16 04:40:00,53.6,45.2,30.09,South,180,0.0,3.1,73,0.00,,,0.00,0.00,VWS V14.01,2013-02-16 12:40:00,
2013-02-16 04:45:00,53.8,45.3,30.09,South,180,0.0,0.0,73,0.00,,,0.00,0.00,VWS V14.01,2013-02-16 12:45:00,
2013-02-16 04:50:00,53.2,45.2,30.09,SSW,202,0.0,2.5,74,0.00,,,0.00,0.00,VWS V14.01,2013-02-16 12:50:00,
2013-02-16 04:55:00,53.8,45.3,30.09,East,90,2.5,3.1,73,0.00,,,0.00,0.00,VWS V14.01,2013-02-16 12:55:00,
2013-02-16 05:00:00,53.4,45.3,30.12,SSW,202,0.0,0.0,74,0.00,,,0.00,0.00,VWS V14.01,2013-02-16 13:00:00,
2013-02-16 05:05:00,53.8,45.0,30.12,SE,135,0.0,2.9,72,0.00,,,0.00,0.00,VWS V14.01,2013-02-16 13:05:00,
2013-02-16 05:10:00,53.8,45.0,30.12,SSE,158,0.0,2.9,72,0.00,,,0.00,0.00,VWS V14.01,2013-02-16 13:10:00,
2013-02-16 05:15:00,53.4,45.0,30.12,SSE,158,0.0,0.0,73,0.00,,,0.00,0.00,VWS V14.01,2013-02-16 13:15:00,
2013-02-16 05:20:00,53.2,44.8,30.12,South,180,0.0,2.0,73,0.00,,,0.00,0.00,VWS V14.01,2013-02-16 13:20:00,
2013-02-16 05:25:00,53.1,44.7,30.12,South,180,0.0,2.0,73,0.00,,,0.00,0.00,VWS V14.01,2013-02-16 13:25:00,
2013-02-16 05:30:00,52.5,44.8,30.09,SW,225,0.0,0.0,75,0.00,,,0.00,0.00,VWS V14.01,2013-02-16 13:30:00,
2013-02-16 05:35:00,52.3,44.7,30.09,SW,225,0.0,0.9,75,0.00,,,0.00,0.00,VWS V14.01,2013-02-16 13:35:00,
2013-02-16 05:40:00,52.3,45.0,30.09,South,180,0.0,0.9,76,0.00,,,0.00,0.00,VWS V14.01,2013-02-16 13:40:00,
2013-02-16 05:45:00,52.5,45.2,30.09,SSW,202,0.0,1.6,76,0.00,,,0.00,0.00,VWS V14.01,2013-02-16 13:45:00,
2013-02-16 05:51:00,52.0,44.7,30.09,SSW,202,0.0,1.6,76,0.00,,,0.00,0.00,VWS V14.01,2013-02-16 13:51:00,
2013-02-16 05:56:00,51.6,45.0,30.09,SSW,202,0.0,2.5,78,0.00,,,0.00,0.00,VWS V14.01,2013-02-16 13:56:00,
2013-02-16 06:00:00,52.9,44.8,30.09,South,180,0.0,5.4,74,0.00,,,0.00,0.00,VWS V14.01,2013-02-16 14:00:00,
2013-02-16 06:01:00,51.8,44.8,30.09,SW,225,0.0,0.0,77,0.00,,,0.00,0.00,VWS V14.01,2013-02-16 14:01:00,
2013-02-16 06:06:00,52.2,45.2,30.09,SE,135,3.1,4.0,77,0.00,,,0.00,0.00,VWS V14.01,2013-02-16 14:06:00,
2013-02-16 06:11:00,52.5,45.2,30.09,SE,135,0.0,4.0,76,0.00,,,0.00,0.00,VWS V14.01,2013-02-16 14:11:00,
2013-02-16 06:15:00,52.9,44.8,30.09,North,0,0.0,2.9,74,0.00,,,0.00,0.00,VWS V14.01,2013-02-16 14:15:00,
2013-02-16 06:16:00,52.5,45.2,30.09,ENE,68,1.6,2.0,76,0.00,,,0.00,0.00,VWS V14.01,2013-02-16 14:16:00,
2013-02-16 06:21:00,52.5,45.2,30.09,SSE,158,0.0,2.5,76,0.00,,,0.00,0.00,VWS V14.01,2013-02-16 14:21:00,
2013-02-16 06:26:00,52.5,45.2,30.09,ENE,68,0.0,2.9,76,0.00,,,0.00,0.00,VWS V14.01,2013-02-16 14:26:00,
2013-02-16 06:30:00,53.1,45.0,30.09,SSW,202,0.0,3.8,74,0.00,,,0.00,0.00,VWS V14.01,2013-02-16 14:30:00,
2013-02-16 06:31:00,53.2,45.5,30.09,SSE,158,1.3,3.1,75,0.00,,,0.00,0.00,VWS V14.01,2013-02-16 14:31:00,
2013-02-16 06:36:00,53.4,45.3,30.09,SSW,202,2.0,3.1,74,0.00,,,0.00,0.00,VWS V14.01,2013-02-16 14:36:00,
2013-02-16 06:41:00,52.9,44.8,30.09,SSE,158,2.0,3.1,74,0.00,,,0.00,0.00,VWS V14.01,2013-02-16 14:41:00,
2013-02-16 06:45:00,53.8,45.3,30.09,SSW,202,0.0,4.3,73,0.00,,,0.00,0.00,VWS V14.01,2013-02-16 14:45:00,
2013-02-16 06:46:00,52.7,45.0,30.09,ENE,68,0.0,2.0,75,0.00,,,0.00,0.00,VWS V14.01,2013-02-16 14:46:00,
2013-02-16 06:51:00,53.1,45.0,30.09,North,0,0.0,3.1,74,0.00,,,0.00,0.00,VWS V14.01,2013-02-16 14:51:00,
2013-02-16 06:56:00,53.1,45.0,30.09,SSE,158,1.6,5.4,74,0.00,,,0.00,0.00,VWS V14.01,2013-02-16 14:56:00,
2013-02-16 07:00:00,53.4,45.7,30.12,SSW,202,0.0,2.0,75,0.00,,,0.00,0.00,VWS V14.01,2013-02-16 15:00:00,
2013-02-16 07:01:00,52.7,44.7,30.09,East,90,2.0,2.0,74,0.00,,,0.00,0.00,VWS V14.01,2013-02-16 15:01:00,
2013-02-16 07:06:00,52.9,44.8,30.09,SSW,202,0.0,2.5,74,0.00,,,0.00,0.00,VWS V14.01,2013-02-16 15:06:00,
2013-02-16 07:11:00,53.1,45.0,30.09,South,180,0.0,2.9,74,0.00,,,0.00,0.00,VWS V14.01,2013-02-16 15:11:00,
2013-02-16 07:15:00,54.1,46.0,30.09,South,180,0.0,1.3,74,0.00,,,0.00,0.00,VWS V14.01,2013-02-16 15:15:00,
2013-02-16 07:16:00,53.1,45.0,30.09,WNW,292,1.1,3.8,74,0.00,,,0.00,0.00,VWS V14.01,2013-02-16 15:16:00,
2013-02-16 07:21:00,52.9,44.8,30.09,NE,45,0.0,3.8,74,0.00,,,0.00,0.00,VWS V14.01,2013-02-16 15:21:00,
2013-02-16 07:26:00,53.2,45.2,30.09,SSW,202,2.7,3.8,74,0.00,,,0.00,0.00,VWS V14.01,2013-02-16 15:26:00,
2013-02-16 07:30:00,54.5,46.4,30.09,SSW,202,1.3,3.4,74,0.00,,,0.00,0.00,VWS V14.01,2013-02-16 15:30:00,
2013-02-16 07:31:00,53.4,45.3,30.09,SSW,202,3.1,3.1,74,0.00,,,0.00,0.00,VWS V14.01,2013-02-16 15:31:00,
2013-02-16 07:36:00,53.1,45.4,30.09,SSW,202,0.0,3.1,75,0.00,,,0.00,0.00,VWS V14.01,2013-02-16 15:36:00,
2013-02-16 07:41:00,53.8,45.0,30.09,SE,135,0.0,4.3,72,0.00,,,0.00,0.00,VWS V14.01,2013-02-16 15:41:00,
2013-02-16 07:45:00,55.9,46.7,30.09,SE,135,0.0,2.7,71,0.00,,,0.00,0.00,VWS V14.01,2013-02-16 15:45:00,
2013-02-16 07:46:00,53.8,45.3,30.09,SSW,202,0.0,0.0,73,0.00,,,0.00,0.00,VWS V14.01,2013-02-16 15:46:00,
2013-02-16 07:51:00,53.6,45.2,30.09,SSW,202,0.0,1.3,73,0.00,,,0.00,0.00,VWS V14.01,2013-02-16 15:51:00,
2013-02-16 07:56:00,53.4,45.3,30.09,SSW,202,0.0,2.0,74,0.00,,,0.00,0.00,VWS V14.01,2013-02-16 15:56:00,
2013-02-16 08:00:00,57.2,45.6,30.09,North,0,0.0,3.6,65,0.00,,,0.00,0.00,VWS V14.01,2013-02-16 16:00:00,
2013-02-16 08:01:00,53.6,45.5,30.12,SSW,202,0.0,0.0,74,0.00,,,0.00,0.00,VWS V14.01,2013-02-16 16:01:00,
2013-02-16 08:06:00,53.8,45.7,30.12,SW,225,0.0,1.3,74,0.00,,,0.00,0.00,VWS V14.01,2013-02-16 16:06:00,
2013-02-16 08:11:00,53.8,45.7,30.12,South,180,0.0,1.3,74,0.00,,,0.00,0.00,VWS V14.01,2013-02-16 16:11:00,
2013-02-16 08:15:00,58.5,45.9,30.09,ESE,112,0.0,2.2,63,0.00,,,0.00,0.00,VWS V14.01,2013-02-16 16:15:00,
2013-02-16 08:16:00,54.3,46.6,30.09,South,180,0.0,0.0,75,0.00,,,0.00,0.00,VWS V14.01,2013-02-16 16:16:00,
2013-02-16 08:21:00,54.1,46.8,30.09,South,180,0.0,0.0,76,0.00,,,0.00,0.00,VWS V14.01,2013-02-16 16:21:00,
2013-02-16 08:26:00,54.1,46.8,30.09,South,180,0.0,0.0,76,0.00,,,0.00,0.00,VWS V14.01,2013-02-16 16:26:00,
2013-02-16 08:30:00,59.4,45.0,30.09,East,90,0.0,2.5,59,0.00,,,0.00,0.00,VWS V14.01,2013-02-16 16:30:00,
2013-02-16 08:31:00,54.7,46.2,30.09,SSW,202,0.0,2.5,73,0.00,,,0.00,0.00,VWS V14.01,2013-02-16 16:31:00,
2013-02-16 08:36:00,55.2,46.7,30.09,SSW,202,0.0,2.5,73,0.00,,,0.00,0.00,VWS V14.01,2013-02-16 16:36:00,
2013-02-16 08:41:00,55.6,46.7,30.09,East,90,2.5,2.5,72,0.00,,,0.00,0.00,VWS V14.01,2013-02-16 16:41:00,
2013-02-16 08:45:00,60.6,45.3,30.09,East,90,1.6,3.6,57,0.00,,,0.00,0.00,VWS V14.01,2013-02-16 16:45:00,
2013-02-16 08:46:00,56.1,46.5,30.09,SE,135,0.0,0.0,70,0.00,,,0.00,0.00,VWS V14.01,2013-02-16 16:46:00,
2013-02-16 08:51:00,56.3,46.3,30.09,ESE,112,0.0,0.0,69,0.00,,,0.00,0.00,VWS V14.01,2013-02-16 16:51:00,
2013-02-16 08:56:00,56.8,45.2,30.09,NNW,338,0.0,3.6,65,0.00,,,0.00,0.00,VWS V14.01,2013-02-16 16:56:00,
2013-02-16 09:00:00,60.8,44.1,30.12,SE,135,2.0,3.8,54,0.00,,,0.00,0.00,VWS V14.01,2013-02-16 17:00:00,
2013-02-16 09:01:00,57.2,45.6,30.09,East,90,0.0,0.0,65,0.00,,,0.00,0.00,VWS V14.01,2013-02-16 17:01:00,
2013-02-16 09:06:00,57.7,45.2,30.09,ESE,112,0.0,2.2,63,0.00,,,0.00,0.00,VWS V14.01,2013-02-16 17:06:00,
2013-02-16 09:11:00,58.1,45.6,30.09,ESE,112,0.0,2.2,63,0.00,,,0.00,0.00,VWS V14.01,2013-02-16 17:11:00,
2013-02-16 09:15:00,60.4,44.2,30.12,ESE,112,1.6,3.8,55,0.00,,,0.00,0.00,VWS V14.01,2013-02-16 17:15:00,
2013-02-16 09:16:00,58.5,45.5,30.09,East,90,0.0,0.0,62,0.00,,,0.00,0.00,VWS V14.01,2013-02-16 17:16:00,
2013-02-16 09:21:00,59.0,45.2,30.09,NE,45,1.3,1.3,60,0.00,,,0.00,0.00,VWS V14.01,2013-02-16 17:21:00,
2013-02-16 09:26:00,59.2,45.3,30.09,ENE,68,0.0,2.5,60,0.00,,,0.12,0.00,VWS V14.01,2013-02-16 17:26:00,
2013-02-16 09:30:00,60.8,44.5,30.12,ENE,68,2.7,4.0,55,0.00,,,0.00,0.00,VWS V14.01,2013-02-16 17:30:00,
2013-02-16 09:31:00,59.4,45.5,30.09,East,90,0.0,0.0,60,0.00,,,0.00,0.00,VWS V14.01,2013-02-16 17:31:00,
2013-02-16 09:36:00,59.7,44.9,30.09,SE,135,0.0,1.6,58,0.00,,,0.00,0.00,VWS V14.01,2013-02-16 17:36:00,
2013-02-16 09:41:00,60.3,45.0,30.09,North,0,2.9,2.9,57,0.00,,,0.00,0.00,VWS V14.01,2013-02-16 17:41:00,
2013-02-16 09:45:00,61.3,44.6,30.12,NE,45,3.4,4.9,54,0.00,,,0.00,0.00,VWS V14.01,2013-02-16 17:45:00,
2013-02-16 09:46:00,60.4,44.7,30.09,East,90,0.9,3.8,56,0.00,,,0.00,0.00,VWS V14.01,2013-02-16 17:46:00,
2013-02-16 09:51:00,60.6,43.9,30.09,East,90,2.0,3.8,54,0.00,,,0.00,0.00,VWS V14.01,2013-02-16 17:51:00,
2013-02-16 09:57:00,60.6,43.9,30.12,ENE,68,2.9,3.8,54,0.00,,,0.00,0.00,VWS V14.01,2013-02-16 17:57:00,
2013-02-16 10:00:00,61.7,43.9,30.12,North,0,0.0,4.9,52,0.00,,,0.00,0.00,VWS V14.01,2013-02-16 18:00:00,
2013-02-16 10:02:00,61.0,44.2,30.12,East,90,0.0,2.9,54,0.00,,,0.00,0.00,VWS V14.01,2013-02-16 18:02:00,
2013-02-16 10:07:00,60.8,44.1,30.12,East,90,2.2,3.8,54,0.00,,,0.00,0.00,VWS V14.01,2013-02-16 18:07:00,
2013-02-16 10:12:00,60.6,44.4,30.12,East,90,0.0,3.8,55,0.00,,,0.00,0.00,VWS V14.01,2013-02-16 18:12:00,
2013-02-16 10:15:00,63.0,45.1,30.12,NE,45,2.9,4.3,52,0.00,,,0.00,0.00,VWS V14.01,2013-02-16 18:15:00,
2013-02-16 10:17:00,60.4,44.2,30.12,ESE,112,0.0,2.7,55,0.00,,,0.00,0.00,VWS V14.01,2013-02-16 18:17:00,
2013-02-16 10:22:00,60.4,44.2,30.12,East,90,3.8,4.0,55,0.00,,,0.00,0.00,VWS V14.01,2013-02-16 18:22:00,
2013-02-16 10:27:00,60.8,44.5,30.12,ENE,68,1.6,4.0,55,0.00,,,0.00,0.00,VWS V14.01,2013-02-16 18:27:00,
2013-02-16 10:30:00,64.0,45.6,30.12,North,0,0.9,5.4,51,0.00,,,0.00,0.00,VWS V14.01,2013-02-16 18:30:00,
2013-02-16 10:32:00,61.0,44.2,30.12,ENE,68,2.7,3.4,54,0.00,,,0.00,0.00,VWS V14.01,2013-02-16 18:32:00,
2013-02-16 10:37:00,61.2,44.4,30.12,East,90,4.9,4.9,54,0.00,,,0.00,0.00,VWS V14.01,2013-02-16 18:37:00,
2013-02-16 10:42:00,61.2,44.4,30.12,NE,45,3.8,4.9,54,0.00,,,0.00,0.00,VWS V14.01,2013-02-16 18:42:00,
2013-02-16 10:45:00,64.6,45.0,30.09,NNE,22,2.5,5.8,49,0.00,,,0.00,0.00,VWS V14.01,2013-02-16 18:45:00,
2013-02-16 10:47:00,61.5,45.2,30.12,NE,45,0.0,4.7,55,0.00,,,0.00,0.00,VWS V14.01,2013-02-16 18:47:00,
2013-02-16 10:52:00,61.3,44.1,30.12,East,90,2.5,4.9,53,0.00,,,0.00,0.00,VWS V14.01,2013-02-16 18:52:00,
2013-02-16 10:57:00,61.7,44.4,30.12,East,90,0.0,4.9,53,0.00,,,0.00,0.00,VWS V14.01,2013-02-16 18:57:00,
2013-02-16 11:00:00,65.1,45.5,30.09,East,90,4.3,4.3,49,0.00,,,0.00,0.00,VWS V14.01,2013-02-16 19:00:00,
2013-02-16 11:02:00,61.9,44.6,30.12,East,90,3.1,3.8,53,0.00,,,0.00,0.00,VWS V14.01,2013-02-16 19:02:00,
2013-02-16 11:07:00,62.4,44.6,30.12,ESE,112,0.0,3.8,52,0.00,,,0.00,0.00,VWS V14.01,2013-02-16 19:07:00,
2013-02-16 11:12:00,62.8,44.9,30.12,East,90,3.4,4.3,52,0.00,,,0.00,0.00,VWS V14.01,2013-02-16 19:12:00,
2013-02-16 11:15:00,65.5,45.3,30.09,East,90,3.4,5.6,48,0.00,,,0.00,0.00,VWS V14.01,2013-02-16 19:15:00,
2013-02-16 11:17:00,63.0,44.6,30.12,East,90,3.1,5.4,51,0.00,,,0.00,0.00,VWS V14.01,2013-02-16 19:17:00,
2013-02-16 11:22:00,63.0,44.6,30.12,NNE,22,4.7,5.4,51,0.00,,,0.00,0.00,VWS V14.01,2013-02-16 19:22:00,
2013-02-16 11:27:00,63.3,44.9,30.12,North,0,0.0,5.4,51,0.00,,,0.00,0.00,VWS V14.01,2013-02-16 19:27:00,
2013-02-16 11:30:00,65.3,45.7,30.09,North,0,0.0,5.8,49,0.00,,,0.00,0.00,VWS V14.01,2013-02-16 19:30:00,
2013-02-16 11:32:00,64.2,45.2,30.12,ENE,68,0.0,3.8,50,0.00,,,0.00,0.00,VWS V14.01,2013-02-16 19:32:00,
2013-02-16 11:37:00,64.2,45.2,30.12,East,90,1.1,5.8,50,0.00,,,0.00,0.00,VWS V14.01,2013-02-16 19:37:00,
2013-02-16 11:42:00,64.4,44.8,30.09,East,90,0.0,5.8,49,0.00,,,0.00,0.00,VWS V14.01,2013-02-16 19:42:00,
2013-02-16 11:45:00,66.2,46.0,30.06,NW,315,0.0,6.0,48,0.00,,,0.00,0.00,VWS V14.01,2013-02-16 19:45:00,
2013-02-16 11:47:00,64.6,45.0,30.09,NNE,22,0.0,2.9,49,0.00,,,0.00,0.00,VWS V14.01,2013-02-16 19:47:00,
2013-02-16 11:52:00,64.6,45.0,30.09,ENE,68,0.0,4.0,49,0.00,,,0.00,0.00,VWS V14.01,2013-02-16 19:52:00,
2013-02-16 11:57:00,64.8,45.2,30.09,ENE,68,3.4,4.0,49,0.00,,,0.00,0.00,VWS V14.01,2013-02-16 19:57:00,
2013-02-16 12:00:00,66.7,46.5,30.06,East,90,1.1,5.8,48,0.00,,,0.00,0.00,VWS V14.01,2013-02-16 20:00:00,
2013-02-16 12:02:00,64.9,45.3,30.09,NE,45,0.0,4.3,49,0.00,,,0.00,0.00,VWS V14.01,2013-02-16 20:02:00,
2013-02-16 12:07:00,65.5,45.3,30.09,NE,45,0.0,4.3,48,0.00,,,0.00,0.00,VWS V14.01,2013-02-16 20:07:00,
2013-02-16 12:12:00,65.3,45.1,30.09,NE,45,2.5,4.5,48,0.00,,,0.00,0.00,VWS V14.01,2013-02-16 20:12:00,
2013-02-16 12:15:00,66.7,46.5,30.06,ENE,68,3.4,5.8,48,0.00,,,0.00,0.00,VWS V14.01,2013-02-16 20:15:00,
2013-02-16 12:17:00,65.5,45.8,30.09,NE,45,3.1,4.3,49,0.00,,,0.00,0.00,VWS V14.01,2013-02-16 20:17:00,
2013-02-16 12:22:00,65.3,45.1,30.09,East,90,3.1,4.7,48,0.00,,,0.00,0.00,VWS V14.01,2013-02-16 20:22:00,
2013-02-16 12:27:00,65.5,45.3,30.09,East,90,2.9,5.8,48,0.00,,,0.00,0.00,VWS V14.01,2013-02-16 20:27:00,
2013-02-16 12:30:00,66.6,46.3,30.06,NNE,22,0.0,5.8,48,0.00,,,0.00,0.00,VWS V14.01,2013-02-16 20:30:00,
2013-02-16 12:32:00,65.7,46.0,30.09,East,90,2.9,3.8,49,0.00,,,0.00,0.00,VWS V14.01,2013-02-16 20:32:00,
2013-02-16 12:37:00,65.7,46.0,30.09,East,90,3.1,3.8,49,0.00,,,0.00,0.00,VWS V14.01,2013-02-16 20:37:00,
2013-02-16 12:42:00,65.8,46.2,30.06,East,90,3.1,6.0,49,0.00,,,0.00,0.00,VWS V14.01,2013-02-16 20:42:00,
2013-02-16 12:45:00,66.9,46.0,30.06,East,90,4.0,6.0,47,0.00,,,0.00,0.00,VWS V14.01,2013-02-16 20:45:00,
2013-02-16 12:47:00,66.4,46.1,30.06,NE,45,2.7,3.6,48,0.00,,,0.00,0.00,VWS V14.01,2013-02-16 20:47:00,
2013-02-16 12:52:00,66.7,46.5,30.06,NE,45,2.7,5.8,48,0.00,,,0.00,0.00,VWS V14.01,2013-02-16 20:52:00,
2013-02-16 12:57:00,66.9,46.6,30.06,NNW,338,4.7,5.8,48,0.00,,,0.00,0.00,VWS V14.01,2013-02-16 20:57:00,
2013-02-16 13:00:00,66.2,45.4,30.06,ENE,68,2.2,5.6,47,0.00,,,0.00,0.00,VWS V14.01,2013-02-16 21:00:00,
2013-02-16 13:02:00,66.9,46.6,30.06,East,90,0.0,4.0,48,0.00,,,0.00,0.00,VWS V14.01,2013-02-16 21:02:00,
2013-02-16 13:07:00,67.1,46.8,30.06,NW,315,3.8,5.6,48,0.00,,,0.00,0.00,VWS V14.01,2013-02-16 21:07:00,
2013-02-16 13:12:00,67.1,46.8,30.06,ENE,68,3.8,5.8,48,0.00,,,0.00,0.00,VWS V14.01,2013-02-16 21:12:00,
2013-02-16 13:15:00,66.6,45.7,30.03,NNW,338,0.0,4.7,47,0.00,,,0.00,0.00,VWS V14.01,2013-02-16 21:15:00,
2013-02-16 13:17:00,66.7,46.5,30.06,NE,45,1.1,3.6,48,0.00,,,0.00,0.00,VWS V14.01,2013-02-16 21:17:00,
2013-02-16 13:22:00,66.7,46.5,30.06,NNE,22,4.3,4.9,48,0.00,,,0.00,0.00,VWS V14.01,2013-02-16 21:22:00,
2013-02-16 13:27:00,66.7,46.5,30.06,NE,45,5.8,5.8,48,0.00,,,0.00,0.00,VWS V14.01,2013-02-16 21:27:00,
2013-02-16 13:30:00,67.1,45.7,30.03,North,0,1.1,3.6,46,0.00,,,0.00,0.00,VWS V14.01,2013-02-16 21:30:00,
2013-02-16 13:32:00,66.9,46.6,30.06,NE,45,5.6,6.0,48,0.00,,,0.00,0.00,VWS V14.01,2013-02-16 21:32:00,
2013-02-16 13:37:00,66.9,46.0,30.06,NNE,22,2.0,6.0,47,0.00,,,0.00,0.00,VWS V14.01,2013-02-16 21:37:00,
2013-02-16 13:42:00,66.9,46.0,30.06,ENE,68,2.9,6.0,47,0.00,,,0.00,0.00,VWS V14.01,2013-02-16 21:42:00,
2013-02-16 13:45:00,67.3,45.8,30.03,WNW,292,0.0,4.3,46,0.00,,,0.00,0.00,VWS V14.01,2013-02-16 21:45:00,
2013-02-16 13:47:00,66.7,46.5,30.06,NNE,22,0.0,4.7,48,0.00,,,0.00,0.00,VWS V14.01,2013-02-16 21:47:00,
2013-02-16 13:52:00,66.7,46.5,30.06,NE,45,3.8,4.7,48,0.00,,,0.00,0.00,VWS V14.01,2013-02-16 21:52:00,
2013-02-16 13:57:00,66.4,45.0,30.06,East,90,0.0,5.6,46,0.00,,,0.00,0.00,VWS V14.01,2013-02-16 21:57:00,
2013-02-16 14:00:00,68.9,47.9,30.03,SE,135,0.0,2.9,47,0.00,,,0.00,0.00,VWS V14.01,2013-02-16 22:00:00,
2013-02-16 14:02:00,66.2,45.4,30.06,South,180,0.0,3.4,47,0.00,,,0.00,0.00,VWS V14.01,2013-02-16 22:02:00,
2013-02-16 14:07:00,66.2,44.8,30.06,East,90,2.2,3.6,46,0.00,,,0.00,0.00,VWS V14.01,2013-02-16 22:07:00,
2013-02-16 14:12:00,66.4,45.0,30.03,ENE,68,2.9,4.7,46,0.00,,,0.00,0.00,VWS V14.01,2013-02-16 22:12:00,
2013-02-16 14:15:00,68.7,47.1,30.03,ENE,68,1.1,3.6,46,0.00,,,0.00,0.00,VWS V14.01,2013-02-16 22:15:00,
2013-02-16 14:18:00,66.9,46.0,30.03,East,90,3.6,3.6,47,0.00,,,0.00,0.00,VWS V14.01,2013-02-16 22:18:00,
2013-02-16 14:23:00,67.3,45.8,30.03,North,0,0.0,3.6,46,0.00,,,0.00,0.00,VWS V14.01,2013-02-16 22:23:00,
2013-02-16 14:28:00,67.5,46.0,30.03,East,90,0.0,3.6,46,0.00,,,0.00,0.00,VWS V14.01,2013-02-16 22:28:00,
2013-02-16 14:30:00,68.5,48.1,30.00,West,270,0.0,2.2,48,0.00,,,0.00,0.00,VWS V14.01,2013-02-16 22:30:00,
2013-02-16 14:33:00,67.3,45.8,30.03,NE,45,3.1,3.4,46,0.00,,,0.00,0.00,VWS V14.01,2013-02-16 22:33:00,
2013-02-16 14:38:00,67.3,45.8,30.03,East,90,3.4,3.4,46,0.00,,,0.00,0.00,VWS V14.01,2013-02-16 22:38:00,
2013-02-16 14:43:00,67.3,45.8,30.03,East,90,0.0,4.3,46,0.00,,,0.00,0.00,VWS V14.01,2013-02-16 22:43:00,
2013-02-16 14:45:00,64.0,48.0,30.03,South,180,0.0,0.0,56,0.00,,,0.00,0.00,VWS V14.01,2013-02-16 22:45:00,
2013-02-16 14:48:00,67.8,46.3,30.03,East,90,0.0,1.6,46,0.00,,,0.00,0.00,VWS V14.01,2013-02-16 22:48:00,
2013-02-16 14:53:00,68.4,46.8,30.03,NNE,22,0.9,2.9,46,0.00,,,0.00,0.00,VWS V14.01,2013-02-16 22:53:00,
2013-02-16 14:58:00,68.9,47.3,30.03,East,90,0.0,2.9,46,0.00,,,0.12,0.00,VWS V14.01,2013-02-16 22:58:00,
2013-02-16 15:00:00,62.2,48.6,30.03,SSW,202,0.0,0.0,61,0.00,,,0.00,0.00,VWS V14.01,2013-02-16 23:00:00,
2013-02-16 15:03:00,69.1,47.5,30.03,East,90,0.0,3.6,46,0.00,,,0.00,0.00,VWS V14.01,2013-02-16 23:03:00,
2013-02-16 15:08:00,68.9,47.3,30.03,NNW,338,0.0,3.6,46,0.00,,,0.00,0.00,VWS V14.01,2013-02-16 23:08:00,
2013-02-16 15:13:00,68.7,47.1,30.03,East,90,0.0,3.6,46,0.00,,,0.00,0.00,VWS V14.01,2013-02-16 23:13:00,
2013-02-16 15:15:00,62.4,50.5,30.03,SW,225,0.0,3.1,65,0.00,,,0.00,0.00,VWS V14.01,2013-02-16 23:15:00,
2013-02-16 15:18:00,68.5,47.0,30.03,SE,135,0.0,2.2,46,0.00,,,0.00,0.00,VWS V14.01,2013-02-16 23:18:00,
2013-02-16 15:23:00,68.2,47.8,30.03,SSE,158,0.0,2.2,48,0.00,,,0.00,0.00,VWS V14.01,2013-02-16 23:23:00,
2013-02-16 15:28:00,69.1,48.6,30.00,West,270,0.0,2.2,48,0.00,,,0.00,0.00,VWS V14.01,2013-02-16 23:28:00,
2013-02-16 15:30:00,62.6,49.4,30.00,SSW,202,0.0,4.0,62,0.00,,,0.00,0.00,VWS V14.01,2013-02-16 23:30:00,
2013-02-16 15:33:00,66.6,46.8,30.00,South,180,0.0,0.0,49,0.00,,,0.00,0.00,VWS V14.01,2013-02-16 23:33:00,
2013-02-16 15:38:00,65.8,47.2,30.00,South,180,0.0,0.0,51,0.00,,,0.00,0.00,VWS V14.01,2013-02-16 23:38:00,
2013-02-16 15:43:00,64.0,47.1,30.03,South,180,0.0,0.0,54,0.00,,,0.00,0.00,VWS V14.01,2013-02-16 23:43:00,
2013-02-16 15:45:00,63.0,48.9,30.00,South,180,3.8,6.5,60,0.00,,,0.00,0.00,VWS V14.01,2013-02-16 23:45:00,
2013-02-16 15:48:00,63.1,47.7,30.03,South,180,0.0,0.0,57,0.00,,,0.00,0.00,VWS V14.01,2013-02-16 23:48:00,
2013-02-16 15:53:00,62.4,48.4,30.03,SSW,202,0.0,0.0,60,0.00,,,0.00,0.00,VWS V14.01,2013-02-16 23:53:00,
2013-02-16 15:58:00,62.2,49.1,30.03,SSW,202,0.0,0.0,62,0.00,,,0.00,0.00,VWS V14.01,2013-02-16 23:58:00,
2013-02-16 16:00:00,62.4,49.7,30.00,SW,225,3.8,6.5,63,0.00,,,0.00,0.00,VWS V14.01,2013-02-17 00:00:00,
2013-02-16 16:03:00,62.2,49.1,30.03,SSW,202,0.0,0.0,62,0.00,,,0.00,0.00,VWS V14.01,2013-02-17 00:03:00,
2013-02-16 16:08:00,61.7,50.2,30.03,SSW,202,0.0,0.0,66,0.00,,,0.00,0.00,VWS V14.01,2013-02-17 00:08:00,
2013-02-16 16:13:00,62.1,50.6,30.03,SSW,202,0.0,0.0,66,0.00,,,0.00,0.00,VWS V14.01,2013-02-17 00:13:00,
2013-02-16 16:15:00,61.0,50.0,30.00,SSW,202,1.6,6.3,67,0.00,,,0.00,0.00,VWS V14.01,2013-02-17 00:15:00,
2013-02-16 16:18:00,62.4,50.5,30.03,SW,225,0.0,0.0,65,0.00,,,0.00,0.00,VWS V14.01,2013-02-17 00:18:00,
2013-02-16 16:23:00,61.5,50.5,30.03,SSW,202,0.0,0.0,67,0.00,,,0.00,0.00,VWS V14.01,2013-02-17 00:23:00,
2013-02-16 16:28:00,62.4,49.7,30.00,WSW,248,4.0,4.0,63,0.00,,,0.00,0.00,VWS V14.01,2013-02-17 00:28:00,
2013-02-16 16:30:00,60.3,48.9,30.00,SSW,202,2.5,3.4,66,0.00,,,0.00,0.00,VWS V14.01,2013-02-17 00:30:00,
2013-02-16 16:33:00,62.2,49.5,30.00,SSW,202,3.1,3.1,63,0.00,,,0.00,0.00,VWS V14.01,2013-02-17 00:33:00,
2013-02-16 16:38:00,62.2,49.5,30.00,SSW,202,2.5,3.8,63,0.00,,,0.00,0.00,VWS V14.01,2013-02-17 00:38:00,
2013-02-16 16:43:00,63.1,48.6,30.00,SSE,158,4.3,6.5,59,0.00,,,0.00,0.00,VWS V14.01,2013-02-17 00:43:00,
2013-02-16 16:45:00,59.2,47.8,30.00,SSW,202,1.3,3.1,66,0.00,,,0.00,0.00,VWS V14.01,2013-02-17 00:45:00,
2013-02-16 16:48:00,62.8,48.7,30.00,SSW,202,3.1,6.5,60,0.00,,,0.00,0.00,VWS V14.01,2013-02-17 00:48:00,
2013-02-16 16:53:00,61.9,49.2,30.00,South,180,0.0,6.5,63,0.00,,,0.00,0.00,VWS V14.01,2013-02-17 00:53:00,
2013-02-16 16:58:00,61.7,49.4,30.00,SSW,202,3.8,6.5,64,0.00,,,0.00,0.00,VWS V14.01,2013-02-17 00:58:00,
2013-02-16 17:00:00,58.8,47.1,30.00,SSW,202,2.5,4.0,65,0.00,,,0.00,0.00,VWS V14.01,2013-02-17 01:00:00,
2013-02-16 17:03:00,62.2,49.9,30.00,South,180,3.4,5.6,64,0.00,,,0.00,0.00,VWS V14.01,2013-02-17 01:03:00,
2013-02-16 17:08:00,61.9,50.0,30.00,WSW,248,2.7,6.3,65,0.00,,,0.00,0.00,VWS V14.01,2013-02-17 01:08:00,
2013-02-16 17:13:00,61.2,50.1,30.00,SW,225,2.2,6.3,67,0.00,,,0.00,0.00,VWS V14.01,2013-02-17 01:13:00,
2013-02-16 17:15:00,57.4,47.3,30.00,SW,225,0.0,2.5,69,0.00,,,0.00,0.00,VWS V14.01,2013-02-17 01:15:00,
2013-02-16 17:18:00,60.8,49.8,30.00,SSW,202,2.0,3.1,67,0.00,,,0.00,0.00,VWS V14.01,2013-02-17 01:18:00,
2013-02-16 17:23:00,60.4,49.8,30.00,SSW,202,0.9,3.1,68,0.00,,,0.00,0.00,VWS V14.01,2013-02-17 01:23:00,
2013-02-16 17:28:00,60.3,48.9,30.00,SSW,202,3.4,3.4,66,0.00,,,0.00,0.00,VWS V14.01,2013-02-17 01:28:00,
2013-02-16 17:30:00,56.5,47.6,30.00,SSW,202,0.0,0.0,72,0.00,,,0.00,0.00,VWS V14.01,2013-02-17 01:30:00,
2013-02-16 17:33:00,59.9,48.5,30.00,SSW,202,0.0,2.7,66,0.00,,,0.00,0.00,VWS V14.01,2013-02-17 01:33:00,
2013-02-16 17:38:00,59.4,48.4,30.00,SSW,202,0.0,2.7,67,0.00,,,0.00,0.00,VWS V14.01,2013-02-17 01:38:00,
2013-02-16 17:43:00,59.2,47.8,30.00,SSW,202,3.1,3.1,66,0.00,,,0.00,0.00,VWS V14.01,2013-02-17 01:43:00,
2013-02-16 17:45:00,55.6,47.8,30.00,South,180,0.0,0.0,75,0.00,,,0.00,0.00,VWS V14.01,2013-02-17 01:45:00,
2013-02-16 17:48:00,59.4,47.2,30.00,SW,225,3.8,4.0,64,0.00,,,0.00,0.00,VWS V14.01,2013-02-17 01:48:00,
2013-02-16 17:53:00,59.4,47.2,30.00,SSW,202,3.1,4.0,64,0.00,,,0.00,0.00,VWS V14.01,2013-02-17 01:53:00,
2013-02-16 17:58:00,59.0,46.8,30.00,SSW,202,2.7,4.0,64,0.00,,,0.00,0.00,VWS V14.01,2013-02-17 01:58:00,
2013-02-16 18:00:00,55.2,47.8,30.00,South,180,0.0,0.0,76,0.00,,,0.00,0.00,VWS V14.01,2013-02-17 02:00:00,
2013-02-16 18:03:00,58.5,47.2,30.00,WSW,248,0.0,2.5,66,0.00,,,0.00,0.00,VWS V14.01,2013-02-17 02:03:00,
2013-02-16 18:08:00,57.7,47.3,30.00,SSW,202,0.0,2.5,68,0.00,,,0.00,0.00,VWS V14.01,2013-02-17 02:08:00,
2013-02-16 18:13:00,57.4,47.3,30.00,SSW,202,0.0,2.5,69,0.00,,,0.00,0.00,VWS V14.01,2013-02-17 02:13:00,
2013-02-16 18:15:00,55.2,48.5,30.00,SW,225,0.0,0.0,78,0.00,,,0.00,0.00,VWS V14.01,2013-02-17 02:15:00,
2013-02-16 18:18:00,57.0,48.5,30.00,SW,225,0.0,0.0,73,0.00,,,0.00,0.00,VWS V14.01,2013-02-17 02:18:00,
2013-02-16 18:24:00,56.8,47.5,30.00,SSW,202,0.0,0.0,71,0.00,,,0.00,0.00,VWS V14.01,2013-02-17 02:24:00,
2013-02-16 18:29:00,56.7,47.8,30.00,SSW,202,0.0,0.0,72,0.00,,,0.00,0.00,VWS V14.01,2013-02-17 02:29:00,
2013-02-16 18:30:00,55.4,48.3,30.00,SSW,202,0.0,2.9,77,0.00,,,0.00,0.00,VWS V14.01,2013-02-17 02:30:00,
2013-02-16 18:34:00,56.1,48.0,30.00,SSW,202,0.0,0.0,74,0.00,,,0.00,0.00,VWS V14.01,2013-02-17 02:34:00,
2013-02-16 18:39:00,55.9,47.8,30.00,South,180,0.0,0.0,74,0.00,,,0.00,0.00,VWS V14.01,2013-02-17 02:39:00,
2013-02-16 18:44:00,55.6,47.8,30.00,South,180,0.0,0.0,75,0.00,,,0.00,0.00,VWS V14.01,2013-02-17 02:44:00,
2013-02-16 18:45:00,54.7,48.3,30.00,SSW,202,0.0,0.9,79,0.00,,,0.00,0.00,VWS V14.01,2013-02-17 02:45:00,
2013-02-16 18:49:00,55.4,48.0,30.00,South,180,0.0,0.0,76,0.00,,,0.00,0.00,VWS V14.01,2013-02-17 02:49:00,
2013-02-16 18:54:00,55.4,48.0,30.00,SSW,202,0.0,0.0,76,0.00,,,0.00,0.00,VWS V14.01,2013-02-17 02:54:00,
2013-02-16 18:59:00,55.2,47.8,30.00,South,180,0.0,0.0,76,0.00,,,0.00,0.00,VWS V14.01,2013-02-17 02:59:00,
2013-02-16 19:00:00,54.3,46.6,30.00,SW,225,0.0,3.4,75,0.00,,,0.00,0.00,VWS V14.01,2013-02-17 03:00:00,
2013-02-16 19:04:00,54.9,47.5,30.00,South,180,0.0,0.0,76,0.00,,,0.00,0.00,VWS V14.01,2013-02-17 03:04:00,
2013-02-16 19:09:00,55.0,48.0,30.00,South,180,0.0,0.0,77,0.00,,,0.00,0.00,VWS V14.01,2013-02-17 03:09:00,
2013-02-16 19:14:00,55.2,48.5,30.00,SW,225,0.0,0.0,78,0.00,,,0.00,0.00,VWS V14.01,2013-02-17 03:14:00,
2013-02-16 19:15:00,53.6,46.9,30.00,SW,225,0.0,0.0,78,0.00,,,0.00,0.00,VWS V14.01,2013-02-17 03:15:00,
2013-02-16 19:19:00,55.0,48.0,30.00,SSW,202,0.0,0.0,77,0.00,,,0.00,0.00,VWS V14.01,2013-02-17 03:19:00,
2013-02-16 19:24:00,55.4,47.6,30.00,SSW,202,0.0,2.9,75,0.00,,,0.00,0.00,VWS V14.01,2013-02-17 03:24:00,
2013-02-16 19:29:00,55.4,48.3,30.00,SSW,202,0.0,2.9,77,0.00,,,0.00,0.00,VWS V14.01,2013-02-17 03:29:00,
2013-02-16 19:30:00,53.6,48.9,30.00,SSW,202,0.0,2.2,84,0.00,,,0.00,0.00,VWS V14.01,2013-02-17 03:30:00,
2013-02-16 19:34:00,55.2,48.2,30.00,SSW,202,0.0,0.0,77,0.00,,,0.00,0.00,VWS V14.01,2013-02-17 03:34:00,
2013-02-16 19:39:00,55.0,48.7,30.00,SSW,202,0.0,0.0,79,0.00,,,0.00,0.00,VWS V14.01,2013-02-17 03:39:00,
2013-02-16 19:44:00,54.7,48.3,30.00,SSW,202,0.0,0.0,79,0.00,,,0.00,0.00,VWS V14.01,2013-02-17 03:44:00,
2013-02-16 19:45:00,52.9,47.5,30.00,South,180,0.0,2.5,82,0.00,,,0.00,0.00,VWS V14.01,2013-02-17 03:45:00,
2013-02-16 19:49:00,54.5,47.1,30.00,SSW,202,0.0,2.0,76,0.00,,,0.00,0.00,VWS V14.01,2013-02-17 03:49:00,
2013-02-16 19:54:00,54.0,45.9,30.00,SSW,202,0.0,2.0,74,0.00,,,0.00,0.00,VWS V14.01,2013-02-17 03:54:00,
2013-02-16 19:59:00,54.3,46.6,30.00,SW,225,0.0,3.4,75,0.00,,,0.00,0.00,VWS V14.01,2013-02-17 03:59:00,
2013-02-16 20:00:00,51.8,47.4,30.00,South,180,0.0,0.0,85,0.00,,,0.00,0.00,VWS V14.01,2013-02-17 04:00:00,
2013-02-16 20:04:00,54.1,46.0,30.00,SW,225,0.0,0.0,74,0.00,,,0.00,0.00,VWS V14.01,2013-02-17 04:04:00,
2013-02-16 20:09:00,54.0,46.6,30.00,SW,225,0.0,0.0,76,0.00,,,0.00,0.00,VWS V14.01,2013-02-17 04:09:00,
2013-02-16 20:14:00,53.6,46.9,30.00,SW,225,0.0,0.0,78,0.00,,,0.00,0.00,VWS V14.01,2013-02-17 04:14:00,
2013-02-16 20:15:00,51.1,47.3,30.00,South,180,0.0,0.0,87,0.00,,,0.00,0.00,VWS V14.01,2013-02-17 04:15:00,
2013-02-16 20:19:00,53.4,47.1,30.00,SW,225,0.0,0.0,79,0.00,,,0.00,0.00,VWS V14.01,2013-02-17 04:19:00,
2013-02-16 20:24:00,53.2,47.2,30.00,WSW,248,0.0,0.0,80,0.00,,,0.00,0.00,VWS V14.01,2013-02-17 04:24:00,
2013-02-16 20:29:00,53.6,48.9,30.00,SSW,202,0.0,2.2,84,0.00,,,0.00,0.00,VWS V14.01,2013-02-17 04:29:00,
2013-02-16 20:30:00,50.5,47.1,30.00,South,180,0.0,0.0,88,0.00,,,0.00,0.00,VWS V14.01,2013-02-17 04:30:00,
2013-02-16 20:34:00,53.8,48.8,30.00,South,180,0.0,2.5,83,0.00,,,0.00,0.00,VWS V14.01,2013-02-17 04:34:00,
2013-02-16 20:39:00,53.4,48.1,30.00,South,180,0.0,2.5,82,0.00,,,0.00,0.00,VWS V14.01,2013-02-17 04:39:00,
2013-02-16 20:44:00,52.9,47.5,30.00,South,180,0.0,2.5,82,0.00,,,0.00,0.00,VWS V14.01,2013-02-17 04:44:00,
2013-02-16 20:45:00,50.2,47.4,30.00,South,180,0.0,0.0,90,0.00,,,0.00,0.00,VWS V14.01,2013-02-17 04:45:00,
2013-02-16 20:49:00,52.5,47.5,30.00,South,180,0.0,0.0,83,0.00,,,0.00,0.00,VWS V14.01,2013-02-17 04:49:00,
2013-02-16 20:54:00,52.2,47.5,30.00,South,180,0.0,0.0,84,0.00,,,0.00,0.00,VWS V14.01,2013-02-17 04:54:00,
2013-02-16 20:59:00,51.8,47.4,30.00,South,180,0.0,0.0,85,0.00,,,0.00,0.00,VWS V14.01,2013-02-17 04:59:00,
2013-02-16 21:00:00,51.8,47.4,30.00,South,180,0.0,0.0,85,0.00,,,0.00,0.00,VWS V14.01,2013-02-17 05:00:00,
2013-02-16 21:02:00,51.6,47.6,30.00,South,180,0.0,0.0,86,0.00,,,0.00,0.00,VWS V14.01,2013-02-17 05:02:00,
2013-02-16 21:03:00,51.6,47.6,30.00,South,180,0.0,0.0,86,0.00,,,0.00,0.00,VWS V14.01,2013-02-17 05:03:00,
2013-02-16 21:08:00,51.4,47.4,30.00,South,180,0.0,0.0,86,0.00,,,0.00,0.00,VWS V14.01,2013-02-17 05:08:00,
2013-02-16 21:13:00,51.1,47.0,30.00,South,180,0.0,0.0,86,0.00,,,0.00,0.00,VWS V14.01,2013-02-17 05:13:00,
2013-02-16 21:15:00,49.1,46.6,30.00,South,180,0.0,0.0,91,0.00,,,0.00,0.00,VWS V14.01,2013-02-17 05:15:00,
2013-02-16 21:19:00,50.9,47.2,30.00,South,180,0.0,0.0,87,0.00,,,0.00,0.00,VWS V14.01,2013-02-17 05:19:00,
2013-02-16 21:24:00,50.7,47.3,30.00,South,180,0.0,0.0,88,0.00,,,0.00,0.00,VWS V14.01,2013-02-17 05:24:00,
2013-02-16 21:29:00,50.5,47.1,30.00,South,180,0.0,0.0,88,0.00,,,0.00,0.00,VWS V14.01,2013-02-17 05:29:00,
2013-02-16 21:30:00,48.7,46.8,30.00,South,180,0.0,2.2,93,0.00,,,0.00,0.00,VWS V14.01,2013-02-17 05:30:00,
2013-02-16 21:34:00,50.5,47.1,30.00,South,180,0.0,0.0,88,0.00,,,0.00,0.00,VWS V14.01,2013-02-17 05:34:00,
2013-02-16 21:39:00,50.2,46.8,30.00,South,180,0.0,0.0,88,0.00,,,0.00,0.00,VWS V14.01,2013-02-17 05:39:00,
2013-02-16 21:44:00,50.2,47.4,30.00,South,180,0.0,0.0,90,0.00,,,0.00,0.00,VWS V14.01,2013-02-17 05:44:00,
2013-02-16 21:45:00,48.4,45.6,30.00,SSW,202,2.2,2.2,90,0.00,,,0.00,0.00,VWS V14.01,2013-02-17 05:45:00,
2013-02-16 21:49:00,50.2,47.7,30.00,South,180,0.0,0.0,91,0.00,,,0.00,0.00,VWS V14.01,2013-02-17 05:49:00,
2013-02-16 21:54:00,50.0,47.2,30.00,South,180,0.0,0.0,90,0.00,,,0.00,0.00,VWS V14.01,2013-02-17 05:54:00,
2013-02-16 21:59:00,49.8,47.3,30.00,South,180,0.0,0.0,91,0.00,,,0.00,0.00,VWS V14.01,2013-02-17 05:59:00,
2013-02-16 22:00:00,48.4,46.2,29.97,SSW,202,0.0,2.2,92,0.00,,,0.00,0.00,VWS V14.01,2013-02-17 06:00:00,
2013-02-16 22:04:00,49.6,47.1,30.00,South,180,0.0,0.0,91,0.00,,,0.00,0.00,VWS V14.01,2013-02-17 06:04:00,
2013-02-16 22:09:00,49.3,46.8,30.00,South,180,0.0,0.0,91,0.00,,,0.00,0.00,VWS V14.01,2013-02-17 06:09:00,
2013-02-16 22:14:00,49.1,46.6,30.00,South,180,0.0,0.0,91,0.00,,,0.00,0.00,VWS V14.01,2013-02-17 06:14:00,
2013-02-16 22:15:00,48.2,45.4,29.97,SSW,202,0.0,0.0,90,0.00,,,0.00,0.00,VWS V14.01,2013-02-17 06:15:00,
2013-02-16 22:19:00,48.9,46.7,30.00,South,180,0.0,0.0,92,0.00,,,0.00,0.00,VWS V14.01,2013-02-17 06:19:00,
2013-02-16 22:24:00,48.6,46.3,30.00,South,180,0.9,2.2,92,0.00,,,0.00,0.00,VWS V14.01,2013-02-17 06:24:00,
2013-02-16 22:29:00,48.7,46.8,30.00,South,180,0.0,2.2,93,0.00,,,0.00,0.00,VWS V14.01,2013-02-17 06:29:00,
2013-02-16 22:30:00,47.8,45.3,29.97,SSW,202,0.0,0.0,91,0.00,,,0.00,0.00,VWS V14.01,2013-02-17 06:30:00,
2013-02-16 22:34:00,48.9,46.7,30.00,SSW,202,1.1,1.1,92,0.00,,,0.00,0.00,VWS V14.01,2013-02-17 06:34:00,
2013-02-16 22:39:00,48.7,46.2,30.00,SSW,202,0.0,1.1,91,0.00,,,0.00,0.00,VWS V14.01,2013-02-17 06:39:00,
2013-02-16 22:44:00,48.4,45.6,30.00,SSW,202,1.3,1.6,90,0.00,,,0.00,0.00,VWS V14.01,2013-02-17 06:44:00,
2013-02-16 22:45:00,47.5,45.3,29.97,South,180,0.0,0.0,92,0.00,,,0.00,0.00,VWS V14.01,2013-02-17 06:45:00,
2013-02-16 22:49:00,48.6,46.1,30.00,SSW,202,0.0,2.2,91,0.00,,,0.00,0.00,VWS V14.01,2013-02-17 06:49:00,
2013-02-16 22:54:00,48.4,46.2,30.00,SSW,202,0.0,2.2,92,0.00,,,0.00,0.00,VWS V14.01,2013-02-17 06:54:00,
2013-02-16 22:59:00,48.2,46.0,29.97,SSW,202,0.0,2.2,92,0.00,,,0.00,0.00,VWS V14.01,2013-02-17 06:59:00,
2013-02-16 23:00:00,47.1,45.5,29.97,SSW,202,0.0,0.0,94,0.00,,,0.00,0.00,VWS V14.01,2013-02-17 07:00:00,
2013-02-16 23:04:00,48.4,45.9,29.97,SSW,202,0.0,0.0,91,0.00,,,0.00,0.00,VWS V14.01,2013-02-17 07:04:00,
2013-02-16 23:09:00,48.2,45.7,29.97,South,180,0.0,0.0,91,0.00,,,0.00,0.00,VWS V14.01,2013-02-17 07:09:00,
2013-02-16 23:14:00,48.4,45.6,29.97,SSW,202,0.0,0.0,90,0.00,,,0.00,0.00,VWS V14.01,2013-02-17 07:14:00,
2013-02-16 23:15:00,47.3,45.7,29.97,SW,225,0.0,0.0,94,0.00,,,0.00,0.00,VWS V14.01,2013-02-17 07:15:00,
2013-02-16 23:19:00,48.2,45.4,29.97,SSW,202,0.0,0.0,90,0.00,,,0.00,0.00,VWS V14.01,2013-02-17 07:19:00,
2013-02-16 23:24:00,47.8,45.3,29.97,SSW,202,0.0,0.0,91,0.00,,,0.00,0.00,VWS V14.01,2013-02-17 07:24:00,
2013-02-16 23:29:00,47.8,45.3,29.97,SSW,202,0.0,0.0,91,0.00,,,0.00,0.00,VWS V14.01,2013-02-17 07:29:00,
2013-02-16 23:30:00,47.1,46.0,29.97,SSW,202,0.0,0.0,96,0.00,,,0.00,0.00,VWS V14.01,2013-02-17 07:30:00,
2013-02-16 23:34:00,47.7,45.2,29.97,SSW,202,0.0,0.0,91,0.00,,,0.00,0.00,VWS V14.01,2013-02-17 07:34:00,
2013-02-16 23:39:00,47.7,45.2,29.97,SSW,202,0.0,0.0,91,0.00,,,0.00,0.00,VWS V14.01,2013-02-17 07:39:00,
2013-02-16 23:44:00,47.5,45.3,29.97,South,180,0.0,0.0,92,0.00,,,0.00,0.00,VWS V14.01,2013-02-17 07:44:00,
2013-02-16 23:45:00,46.8,45.4,29.97,SSW,202,0.0,0.0,95,0.00,,,0.00,0.00,VWS V14.01,2013-02-17 07:45:00,
2013-02-16 23:49:00,47.3,45.1,29.97,South,180,0.0,0.0,92,0.00,,,0.00,0.00,VWS V14.01,2013-02-17 07:49:00,
2013-02-16 23:54:00,47.3,45.4,29.97,SSW,202,0.0,0.0,93,0.00,,,0.00,0.00,VWS V14.01,2013-02-17 07:54:00,
2013-02-16 23:59:00,47.1,45.5,29.97,SSW,202,0.0,0.0,94,0.00,,,0.00,0.00,VWS V14.01,2013-02-17 07:59:00,